Time;durP1;ratioP1;P1;durP2;ratioP2;P2;SDS_P1;SDS_P2;PMS_P1;PMS_P2;Temp;Humidity;BMP_temperature;BMP_pressure;BME280_temperature;BME280_humidity;BME280_pressure;Samples;Min_cycle;Max_cycle;Signal;HPM_P1;HPM_P2
2023/08/06 00:01:26;;;;;;;6.65;4.47;;;16.70;99.90;;;;;;4986413;28;20053;-76
2023/08/06 00:04:24;;;;;;;8.90;4.78;;;16.70;99.90;;;;;;4991711;28;20035;-76
2023/08/06 00:06:50;;;;;;;7.43;5.20;;;16.70;99.90;;;;;;4924870;29;20144;-76
2023/08/06 00:09:21;;;;;;;6.43;4.10;;;16.60;99.90;;;;;;4908927;29;20047;-76
2023/08/06 00:11:59;;;;;;;6.70;4.43;;;16.50;99.90;;;;;;4962193;28;20046;-76
2023/08/06 00:14:27;;;;;;;6.38;4.70;;;16.40;99.90;;;;;;4984224;28;20050;-76
2023/08/06 00:17:02;;;;;;;7.30;4.70;;;16.30;99.90;;;;;;4984034;28;20310;-76
2023/08/06 00:19:43;;;;;;;6.30;4.68;;;16.10;99.90;;;;;;4983859;28;20035;-76
2023/08/06 00:22:15;;;;;;;7.57;5.68;;;16.00;99.90;;;;;;4966179;28;20341;-77
2023/08/06 00:24:57;;;;;;;7.07;5.07;;;15.90;99.90;;;;;;4984153;28;20042;-75
2023/08/06 00:27:27;;;;;;;6.85;5.28;;;15.70;99.90;;;;;;4966142;28;20114;-75
2023/08/06 00:29:56;;;;;;;7.75;5.30;;;15.70;99.90;;;;;;4982644;28;20057;-75
2023/08/06 06:10:43;;;;;;;2.50;0.35;;;16.60;99.90;;;;;;5205061;23;20046;-75
2023/08/06 06:13:10;;;;;;;2.05;0.43;;;16.60;99.90;;;;;;5002760;28;20098;-77
2023/08/06 06:15:35;;;;;;;2.13;0.38;;;16.40;99.90;;;;;;5005343;28;20370;-76
2023/08/06 06:18:01;;;;;;;1.08;0.40;;;16.30;99.90;;;;;;4996160;28;20019;-76
2023/08/06 06:20:26;;;;;;;1.40;0.20;;;16.40;99.90;;;;;;5004451;28;20034;-76
2023/08/06 06:22:52;;;;;;;1.85;0.40;;;16.20;99.90;;;;;;5005548;28;20072;-77
2023/08/06 06:25:18;;;;;;;1.33;0.20;;;16.10;99.90;;;;;;4996258;28;20300;-76
2023/08/06 06:27:43;;;;;;;1.40;0.30;;;16.10;99.90;;;;;;4986225;28;20052;-76
2023/08/06 06:30:11;;;;;;;1.30;0.30;;;16.20;99.90;;;;;;4986147;28;20058;-75
2023/08/06 06:32:37;;;;;;;3.08;0.45;;;16.20;99.90;;;;;;4985148;28;20097;-77
2023/08/06 06:35:03;;;;;;;1.70;0.20;;;16.20;99.90;;;;;;4996067;28;20098;-77
2023/08/06 06:37:29;;;;;;;1.75;0.30;;;16.10;99.90;;;;;;5001889;28;20026;-76
2023/08/06 06:39:55;;;;;;;1.17;0.20;;;16.20;99.90;;;;;;5005075;28;20358;-75
2023/08/06 06:42:22;;;;;;;3.10;0.38;;;16.20;99.90;;;;;;5004838;28;20216;-74
2023/08/06 06:44:50;;;;;;;1.65;0.30;;;16.30;99.90;;;;;;4968951;28;20043;-75
2023/08/06 06:47:16;;;;;;;1.42;0.30;;;16.50;99.90;;;;;;4968473;28;20029;-74
2023/08/06 06:49:42;;;;;;;3.72;0.30;;;16.40;99.90;;;;;;4985233;28;20047;-73
2023/08/06 06:52:08;;;;;;;1.65;0.30;;;16.60;99.90;;;;;;4998865;28;20053;-75
2023/08/06 06:54:33;;;;;;;2.17;0.30;;;16.70;99.90;;;;;;4998423;28;20225;-74
2023/08/06 06:56:59;;;;;;;1.45;0.45;;;16.90;99.90;;;;;;4973795;28;20041;-74
2023/08/06 06:59:25;;;;;;;0.75;0.28;;;17.00;99.90;;;;;;5000399;28;20046;-74
2023/08/06 07:01:50;;;;;;;1.90;0.30;;;17.10;99.90;;;;;;4988850;28;20026;-74
2023/08/06 07:04:16;;;;;;;1.17;0.20;;;17.30;99.90;;;;;;5004983;28;20053;-74
2023/08/06 07:06:42;;;;;;;1.27;0.17;;;17.10;99.90;;;;;;4994110;28;20060;-73
2023/08/06 07:09:13;;;;;;;1.70;0.20;;;17.00;99.90;;;;;;5003684;28;20085;-74
2023/08/06 07:11:43;;;;;;;0.85;0.30;;;17.00;99.90;;;;;;4984716;28;20265;-73
2023/08/06 07:14:22;;;;;;;1.10;0.20;;;16.80;99.90;;;;;;4966537;28;20048;-74
2023/08/06 07:16:59;;;;;;;1.90;0.30;;;16.70;99.90;;;;;;4994967;28;20200;-74
2023/08/06 07:19:37;;;;;;;1.33;0.35;;;16.60;99.90;;;;;;5004230;28;20034;-76
2023/08/06 07:22:25;;;;;;;1.55;0.50;;;16.50;99.90;;;;;;5004704;28;20026;-74
2023/08/06 07:25:16;;;;;;;1.38;0.20;;;16.20;99.90;;;;;;4990723;28;20084;-74
2023/08/06 07:27:45;;;;;;;0.95;0.30;;;16.10;99.90;;;;;;4991223;28;20380;-74
2023/08/06 07:30:14;;;;;;;2.13;0.30;;;16.10;99.90;;;;;;4984520;28;20045;-75
2023/08/06 07:32:39;;;;;;;1.35;0.30;;;16.00;99.90;;;;;;4994931;28;20224;-74
2023/08/06 07:35:12;;;;;;;1.85;0.30;;;15.90;99.90;;;;;;5004356;28;20033;-74
2023/08/06 07:37:41;;;;;;;1.75;0.40;;;15.70;99.90;;;;;;4986390;28;20320;-74
2023/08/06 07:40:23;;;;;;;2.35;0.40;;;15.80;99.90;;;;;;5003957;28;20026;-74
2023/08/06 07:42:59;;;;;;;1.00;0.20;;;15.70;99.90;;;;;;4987150;28;20026;-74
2023/08/06 07:45:58;;;;;;;0.98;0.30;;;15.80;99.90;;;;;;4986285;28;20034;-75
2023/08/06 07:48:41;;;;;;;0.60;0.20;;;15.90;99.90;;;;;;5003588;28;20053;-74
2023/08/06 07:51:11;;;;;;;2.45;0.30;;;16.00;99.90;;;;;;4987086;28;20034;-74
2023/08/06 07:53:47;;;;;;;1.27;0.20;;;16.20;99.90;;;;;;4982839;28;20035;-74
2023/08/06 07:56:22;;;;;;;1.58;0.20;;;16.30;99.90;;;;;;5003701;28;20029;-74
2023/08/06 07:58:51;;;;;;;1.10;0.10;;;16.50;99.90;;;;;;5003267;28;20014;-75
2023/08/06 08:01:22;;;;;;;0.90;0.25;;;16.70;99.90;;;;;;5003592;28;20030;-74
2023/08/06 08:03:48;;;;;;;1.05;0.20;;;16.90;99.90;;;;;;5003132;28;20026;-79
2023/08/06 08:06:37;;;;;;;1.48;0.20;;;16.90;99.90;;;;;;4986359;28;20030;-74
2023/08/06 08:09:08;;;;;;;0.80;0.20;;;17.10;99.90;;;;;;4966483;28;20034;-74
2023/08/06 08:11:34;;;;;;;0.85;0.20;;;17.50;99.90;;;;;;4983847;28;20034;-74
2023/08/06 08:14:00;;;;;;;0.98;0.25;;;17.40;99.90;;;;;;4983831;28;20061;-73
2023/08/06 08:16:29;;;;;;;0.30;0.10;;;17.40;99.90;;;;;;4974733;28;20065;-73
2023/08/06 08:19:06;;;;;;;0.47;0.10;;;17.50;99.90;;;;;;4967833;28;20023;-73
2023/08/06 08:21:32;;;;;;;0.80;0.00;;;17.50;99.90;;;;;;4983716;28;20038;-75
2023/08/06 08:24:09;;;;;;;0.30;0.05;;;17.50;99.90;;;;;;4984093;28;20224;-76
2023/08/06 08:26:38;;;;;;;0.20;0.00;;;17.80;99.90;;;;;;4966582;28;20027;-75
2023/08/06 08:29:06;;;;;;;0.68;0.10;;;17.90;99.90;;;;;;4978469;28;20038;-75
2023/08/06 08:31:38;;;;;;;1.98;0.10;;;18.00;99.90;;;;;;5003210;28;20034;-75
2023/08/06 08:34:07;;;;;;;0.22;0.00;;;18.00;99.90;;;;;;4986274;28;20048;-73
2023/08/06 08:36:33;;;;;;;0.52;0.00;;;18.10;99.90;;;;;;5003248;28;20034;-74
2023/08/06 08:38:59;;;;;;;0.43;0.10;;;18.50;99.90;;;;;;5003755;28;20130;-72
2023/08/06 08:41:42;;;;;;;0.17;0.00;;;18.70;99.60;;;;;;4969959;28;20112;-74
2023/08/06 08:44:10;;;;;;;0.22;0.00;;;18.90;98.60;;;;;;5003308;28;20098;-73
2023/08/06 08:46:42;;;;;;;0.30;0.00;;;18.70;98.70;;;;;;4985546;28;20215;-72
2023/08/06 08:49:13;;;;;;;0.10;0.00;;;18.50;98.80;;;;;;5003347;28;20029;-73
2023/08/06 08:51:39;;;;;;;0.10;0.00;;;18.50;98.90;;;;;;4985281;28;20097;-74
2023/08/06 08:54:21;;;;;;;0.90;0.00;;;18.30;98.70;;;;;;4996428;28;20046;-74
2023/08/06 08:57:04;;;;;;;0.50;0.10;;;18.10;99.20;;;;;;4987808;28;20328;-74
2023/08/06 08:59:33;;;;;;;0.10;0.00;;;18.00;99.40;;;;;;4993711;28;20050;-75
2023/08/06 09:02:43;;;;;;;0.10;0.00;;;17.80;99.50;;;;;;4987427;28;20039;-74
2023/08/06 09:05:16;;;;;;;0.20;0.00;;;17.90;99.60;;;;;;4987126;28;20046;-74
2023/08/06 09:07:45;;;;;;;0.38;0.00;;;18.00;99.90;;;;;;4987201;28;20035;-73
2023/08/06 09:10:29;;;;;;;1.45;0.10;;;17.70;99.90;;;;;;4987100;28;20039;-74
2023/08/06 09:12:59;;;;;;;0.50;0.00;;;17.00;99.90;;;;;;4986725;28;20039;-73
2023/08/06 09:15:25;;;;;;;0.40;0.00;;;16.70;99.90;;;;;;4986207;28;20261;-74
2023/08/06 09:17:54;;;;;;;0.20;0.00;;;16.60;99.90;;;;;;4987008;28;20031;-74
2023/08/06 09:20:20;;;;;;;0.82;0.10;;;16.70;99.90;;;;;;4987262;28;20053;-72
2023/08/06 09:22:49;;;;;;;0.05;0.00;;;16.90;99.90;;;;;;4969907;28;20050;-73
2023/08/06 09:25:24;;;;;;;0.13;0.10;;;17.00;99.90;;;;;;4986932;28;20038;-74
2023/08/06 09:27:51;;;;;;;0.70;0.00;;;17.30;99.90;;;;;;4986639;28;20042;-73
2023/08/06 09:30:31;;;;;;;0.22;0.00;;;17.60;99.90;;;;;;4987483;28;20086;-73
2023/08/06 09:32:57;;;;;;;0.40;0.00;;;18.10;99.90;;;;;;4953730;28;20216;-74
2023/08/06 09:35:23;;;;;;;0.00;0.00;;;18.40;99.90;;;;;;4986960;28;20077;-73
2023/08/06 09:37:49;;;;;;;0.15;0.00;;;18.50;99.50;;;;;;4969364;28;20089;-73
2023/08/06 09:40:50;;;;;;;0.38;0.05;;;18.80;98.80;;;;;;4986959;28;20034;-74
2023/08/06 09:43:19;;;;;;;0.93;0.10;;;18.80;98.60;;;;;;4908618;29;20036;-73
2023/08/06 09:45:45;;;;;;;0.93;0.10;;;18.50;99.70;;;;;;4972179;28;20127;-74
2023/08/06 09:48:12;;;;;;;0.28;0.00;;;18.50;99.90;;;;;;4986605;28;20061;-73
2023/08/06 09:50:39;;;;;;;0.20;0.00;;;18.20;99.90;;;;;;4986704;28;20460;-73
2023/08/06 09:53:09;;;;;;;0.45;0.10;;;17.80;99.90;;;;;;4986601;28;20041;-74
2023/08/06 09:55:35;;;;;;;0.88;0.10;;;17.50;99.90;;;;;;4986255;28;20035;-72
2023/08/06 09:58:01;;;;;;;1.27;0.10;;;17.50;99.90;;;;;;4988664;28;20343;-74
2023/08/06 10:00:28;;;;;;;0.77;0.10;;;17.60;99.90;;;;;;5005969;28;20042;-75
2023/08/06 10:03:00;;;;;;;2.92;0.10;;;17.80;99.90;;;;;;4988555;28;20034;-73
2023/08/06 10:05:27;;;;;;;0.65;0.10;;;17.90;99.90;;;;;;4997078;28;20046;-74
2023/08/06 10:07:53;;;;;;;0.30;0.00;;;18.10;99.90;;;;;;4985761;28;20033;-73
2023/08/06 10:10:22;;;;;;;0.28;0.00;;;18.10;99.90;;;;;;4986242;28;20089;-74
2023/08/06 10:12:51;;;;;;;0.08;0.00;;;18.00;99.90;;;;;;4985875;28;20045;-74
2023/08/06 10:15:21;;;;;;;0.38;0.00;;;17.70;99.90;;;;;;4986398;28;20324;-72
2023/08/06 10:17:49;;;;;;;0.20;0.00;;;17.30;99.90;;;;;;4985992;28;20046;-73
2023/08/06 10:20:14;;;;;;;1.30;0.10;;;17.20;99.90;;;;;;4969112;28;20038;-72
2023/08/06 10:22:46;;;;;;;0.40;0.03;;;17.10;99.90;;;;;;4968543;28;20392;-73
2023/08/06 10:25:17;;;;;;;0.30;0.00;;;17.00;99.90;;;;;;4986096;28;20027;-72
2023/08/06 10:27:48;;;;;;;0.43;0.10;;;17.00;99.90;;;;;;4986108;28;20335;-72
2023/08/06 10:30:28;;;;;;;0.68;0.10;;;17.00;99.90;;;;;;4985918;28;20026;-73
2023/08/06 10:33:00;;;;;;;0.63;0.20;;;16.90;99.90;;;;;;4985831;28;20041;-71
2023/08/06 10:35:34;;;;;;;0.57;0.08;;;16.90;99.90;;;;;;4986177;28;20042;-72
2023/08/06 10:38:18;;;;;;;0.52;0.10;;;17.00;99.90;;;;;;4986143;28;20031;-72
2023/08/06 10:40:53;;;;;;;0.28;0.00;;;17.00;99.90;;;;;;4952965;28;20077;-72
2023/08/06 10:43:47;;;;;;;1.25;0.00;;;17.30;99.90;;;;;;4985938;28;20019;-72
2023/08/06 10:46:23;;;;;;;2.30;0.47;;;17.50;99.90;;;;;;4983913;28;20043;-73
2023/08/06 10:48:49;;;;;;;0.25;0.10;;;18.00;99.90;;;;;;4985357;28;20035;-72
2023/08/06 10:51:15;;;;;;;1.92;0.20;;;18.30;99.90;;;;;;4985483;28;20031;-74
2023/08/06 10:53:46;;;;;;;0.55;0.10;;;18.40;99.90;;;;;;4968243;28;20219;-74
2023/08/06 10:56:22;;;;;;;0.70;0.10;;;18.20;99.90;;;;;;4985751;28;20041;-74
2023/08/06 10:58:49;;;;;;;0.60;0.17;;;18.10;99.90;;;;;;4973160;28;20022;-74
2023/08/06 11:01:15;;;;;;;0.40;0.10;;;18.00;99.90;;;;;;4985758;28;20062;-73
2023/08/06 11:03:46;;;;;;;1.10;0.10;;;18.20;99.90;;;;;;4984909;28;20085;-74
2023/08/06 11:06:20;;;;;;;0.28;0.08;;;18.20;99.90;;;;;;4985301;28;20026;-74
2023/08/06 11:08:53;;;;;;;0.45;0.10;;;18.20;99.90;;;;;;4984942;28;20034;-73
2023/08/06 11:11:19;;;;;;;0.20;0.10;;;18.00;99.90;;;;;;4984964;28;20050;-73
2023/08/06 11:13:49;;;;;;;0.10;0.00;;;17.60;99.90;;;;;;4967693;28;20043;-74
2023/08/06 11:16:20;;;;;;;0.73;0.13;;;17.40;99.90;;;;;;4985221;28;20221;-74
2023/08/06 11:18:49;;;;;;;0.40;0.10;;;17.50;99.90;;;;;;4984708;28;20031;-72
2023/08/06 11:21:25;;;;;;;0.47;0.13;;;17.60;99.60;;;;;;4985100;28;20045;-73
2023/08/06 11:23:54;;;;;;;0.63;0.10;;;17.70;99.00;;;;;;4967423;28;20264;-74
2023/08/06 11:26:20;;;;;;;0.90;0.10;;;18.00;98.60;;;;;;4985035;28;20031;-74
2023/08/06 11:28:46;;;;;;;0.55;0.10;;;18.00;99.10;;;;;;4984045;28;20041;-73
2023/08/06 11:31:29;;;;;;;0.40;0.10;;;17.90;98.50;;;;;;4984932;28;20034;-73
2023/08/06 11:33:55;;;;;;;1.40;0.17;;;17.70;98.90;;;;;;4950944;28;20035;-73
2023/08/06 11:36:31;;;;;;;0.45;0.10;;;17.90;98.40;;;;;;4951434;28;20081;-73
2023/08/06 11:39:05;;;;;;;0.65;0.20;;;18.10;97.60;;;;;;4984228;28;20031;-74
2023/08/06 11:41:33;;;;;;;1.85;0.35;;;18.10;97.10;;;;;;4984599;28;20019;-73
2023/08/06 11:43:59;;;;;;;2.05;0.40;;;17.80;98.30;;;;;;4984347;28;20085;-72
2023/08/06 11:46:25;;;;;;;0.90;0.20;;;17.90;99.20;;;;;;4984609;28;20366;-73
2023/08/06 11:49:02;;;;;;;2.00;0.32;;;18.30;98.00;;;;;;4951108;28;20101;-73
2023/08/06 11:51:27;;;;;;;1.15;0.32;;;18.40;97.50;;;;;;4984473;28;20035;-73
2023/08/06 11:53:57;;;;;;;2.13;0.38;;;18.40;97.30;;;;;;4983658;28;20038;-73
2023/08/06 11:56:26;;;;;;;1.02;0.40;;;18.30;96.70;;;;;;4984156;28;20077;-72
2023/08/06 11:58:52;;;;;;;0.70;0.30;;;17.90;97.00;;;;;;4993211;28;20056;-73
2023/08/06 12:01:19;;;;;;;1.30;0.40;;;17.60;97.50;;;;;;4986631;28;20038;-74
2023/08/06 12:03:47;;;;;;;1.33;0.43;;;17.60;98.50;;;;;;5003028;28;20101;-72
2023/08/06 12:06:13;;;;;;;2.50;0.60;;;17.50;99.70;;;;;;4989459;28;20045;-73
2023/08/06 12:08:42;;;;;;;1.65;0.43;;;16.80;99.90;;;;;;4966847;28;20267;-72
2023/08/06 12:11:08;;;;;;;1.40;0.47;;;16.30;99.90;;;;;;4950731;28;20089;-72
2023/08/06 12:13:34;;;;;;;4.60;0.77;;;16.10;99.90;;;;;;4967096;28;20041;-73
2023/08/06 12:16:00;;;;;;;1.73;0.57;;;15.90;99.90;;;;;;4950622;28;20035;-73
2023/08/06 12:18:25;;;;;;;2.28;0.77;;;15.90;99.90;;;;;;4983814;28;20045;-73
2023/08/06 12:20:51;;;;;;;2.10;0.60;;;16.00;99.90;;;;;;4983620;28;20098;-72
2023/08/06 12:23:17;;;;;;;2.40;0.70;;;16.00;99.90;;;;;;4984199;28;20111;-73
2023/08/06 12:25:44;;;;;;;1.30;0.52;;;16.20;99.90;;;;;;4983890;28;20041;-74
2023/08/06 12:28:10;;;;;;;1.60;0.65;;;16.50;99.90;;;;;;4983738;28;20255;-72
2023/08/06 12:30:36;;;;;;;1.67;0.70;;;16.70;99.20;;;;;;4966702;28;20240;-74
2023/08/06 12:33:02;;;;;;;2.08;0.60;;;16.70;99.20;;;;;;4983663;28;20210;-73
2023/08/06 12:35:27;;;;;;;2.65;0.65;;;17.00;98.60;;;;;;4984197;28;20045;-74
2023/08/06 12:37:54;;;;;;;1.85;0.57;;;17.40;97.70;;;;;;4966722;28;20093;-74
2023/08/06 12:40:20;;;;;;;2.17;0.55;;;17.50;97.60;;;;;;4984240;28;20046;-73
2023/08/06 12:42:46;;;;;;;3.20;0.68;;;17.70;96.80;;;;;;4983818;28;20180;-72
2023/08/06 12:45:20;;;;;;;2.03;0.50;;;18.10;96.00;;;;;;4983773;28;20027;-73
2023/08/06 12:47:49;;;;;;;1.35;0.50;;;18.00;95.40;;;;;;4983465;28;20330;-73
2023/08/06 12:50:17;;;;;;;2.22;0.65;;;18.00;95.70;;;;;;4983801;28;20035;-73
2023/08/06 12:52:42;;;;;;;0.77;0.30;;;18.10;95.60;;;;;;4983713;28;20086;-72
2023/08/06 12:55:14;;;;;;;1.13;0.40;;;18.80;94.30;;;;;;4983386;28;20313;-73
2023/08/06 12:57:48;;;;;;;0.73;0.30;;;19.20;93.90;;;;;;4983329;28;20042;-73
2023/08/06 13:00:20;;;;;;;1.13;0.20;;;19.60;92.60;;;;;;4983749;28;20090;-72
2023/08/06 13:02:45;;;;;;;0.75;0.30;;;19.70;92.70;;;;;;4966347;28;20368;-73
2023/08/06 13:05:11;;;;;;;0.65;0.10;;;19.50;92.90;;;;;;4989222;28;20026;-73
2023/08/06 13:07:37;;;;;;;1.25;0.40;;;19.10;93.50;;;;;;5003060;28;20325;-73
2023/08/06 13:10:08;;;;;;;1.30;0.20;;;18.80;93.80;;;;;;4984478;28;20042;-74
2023/08/06 13:12:37;;;;;;;2.08;0.50;;;18.80;94.00;;;;;;5003132;28;20035;-73
2023/08/06 13:15:06;;;;;;;4.00;0.70;;;19.00;93.90;;;;;;5002549;28;20048;-76
2023/08/06 13:17:45;;;;;;;2.30;0.30;;;18.90;93.80;;;;;;5002992;28;20034;-73
2023/08/06 13:20:11;;;;;;;1.00;0.30;;;19.10;93.20;;;;;;4969619;28;20026;-74
2023/08/06 13:22:37;;;;;;;1.58;0.50;;;19.10;92.90;;;;;;5003099;28;20067;-73
2023/08/06 13:25:03;;;;;;;0.88;0.25;;;19.20;93.00;;;;;;4985275;28;20022;-72
2023/08/06 13:27:28;;;;;;;2.45;0.88;;;19.50;92.80;;;;;;5002871;28;20022;-72
2023/08/06 13:29:54;;;;;;;0.70;0.20;;;19.50;92.10;;;;;;5002747;28;20264;-74
2023/08/06 13:32:20;;;;;;;1.35;0.20;;;19.40;92.00;;;;;;4985803;28;20045;-73
2023/08/06 13:34:46;;;;;;;1.88;0.50;;;19.70;91.60;;;;;;4985424;28;20041;-72
2023/08/06 13:37:11;;;;;;;2.25;0.38;;;19.50;91.60;;;;;;5003317;28;20022;-73
2023/08/06 13:39:37;;;;;;;1.77;0.50;;;19.60;91.30;;;;;;5003070;28;20026;-74
2023/08/06 13:42:03;;;;;;;1.60;0.40;;;19.70;91.20;;;;;;5005702;28;20029;-74
2023/08/06 13:44:35;;;;;;;1.33;0.30;;;19.50;91.30;;;;;;4988959;28;20097;-74
2023/08/06 13:47:01;;;;;;;1.45;0.32;;;19.10;91.90;;;;;;5005817;28;20101;-73
2023/08/06 13:49:27;;;;;;;2.03;0.30;;;18.80;92.40;;;;;;5006263;28;20042;-73
2023/08/06 13:51:52;;;;;;;3.78;0.50;;;18.50;92.50;;;;;;4972413;28;20098;-72
2023/08/06 13:54:20;;;;;;;1.05;0.10;;;18.40;92.70;;;;;;5005801;28;20030;-73
2023/08/06 13:56:46;;;;;;;1.05;0.30;;;18.30;93.00;;;;;;5005927;28;20089;-74
2023/08/06 13:59:13;;;;;;;1.02;0.20;;;18.60;92.80;;;;;;5005553;28;20030;-74
2023/08/06 14:01:48;;;;;;;0.80;0.20;;;18.90;92.20;;;;;;5006111;28;20055;-74
2023/08/06 14:04:17;;;;;;;1.52;0.40;;;19.00;92.50;;;;;;4989132;28;20022;-72
2023/08/06 14:06:52;;;;;;;1.02;0.20;;;19.00;91.80;;;;;;4988307;28;20034;-73
2023/08/06 14:09:18;;;;;;;0.77;0.30;;;18.70;91.90;;;;;;4988101;28;20228;-71
2023/08/06 14:11:44;;;;;;;1.45;0.22;;;18.60;92.50;;;;;;5005952;28;20089;-72
2023/08/06 14:14:11;;;;;;;1.75;0.20;;;18.40;92.40;;;;;;5005080;28;20030;-73
2023/08/06 14:16:39;;;;;;;0.68;0.20;;;18.20;92.70;;;;;;5002830;28;20048;-74
2023/08/06 14:19:04;;;;;;;2.65;0.63;;;18.20;92.80;;;;;;4990629;28;20269;-71
2023/08/06 14:21:30;;;;;;;0.82;0.20;;;18.40;91.90;;;;;;4976784;28;20033;-72
2023/08/06 14:23:56;;;;;;;2.88;0.85;;;18.50;92.00;;;;;;5005019;28;20023;-73
2023/08/06 14:26:22;;;;;;;2.13;0.30;;;18.70;91.80;;;;;;4968767;28;20077;-74
2023/08/06 14:28:48;;;;;;;0.80;0.40;;;18.90;91.20;;;;;;4995826;28;20045;-73
2023/08/06 14:31:36;;;;;;;0.50;0.13;;;19.10;91.00;;;;;;4985519;28;20030;-74
2023/08/06 14:34:05;;;;;;;0.95;0.20;;;19.20;91.10;;;;;;4977895;28;20388;-73
2023/08/06 14:36:34;;;;;;;0.75;0.20;;;19.10;91.30;;;;;;4988488;28;20150;-72
2023/08/06 14:39:00;;;;;;;1.45;0.40;;;19.00;91.50;;;;;;4985165;28;20101;-74
2023/08/06 14:41:29;;;;;;;0.52;0.20;;;18.90;91.90;;;;;;4986007;28;20035;-72
2023/08/06 14:44:00;;;;;;;2.50;0.40;;;19.10;92.20;;;;;;4985415;28;20031;-75
2023/08/06 14:46:26;;;;;;;1.35;0.40;;;19.00;91.90;;;;;;4985678;28;20236;-73
2023/08/06 14:48:58;;;;;;;1.65;0.20;;;18.60;92.50;;;;;;4985171;28;20065;-73
2023/08/06 14:51:24;;;;;;;3.10;0.50;;;18.60;92.70;;;;;;4993456;28;20304;-73
2023/08/06 14:54:10;;;;;;;1.17;0.30;;;18.30;93.90;;;;;;4989472;28;20248;-72
2023/08/06 14:56:36;;;;;;;1.50;0.40;;;18.00;95.40;;;;;;5005117;28;20069;-75
2023/08/06 14:59:01;;;;;;;0.63;0.20;;;17.70;97.00;;;;;;5004108;28;20030;-74
2023/08/06 15:01:27;;;;;;;1.13;0.32;;;17.50;98.00;;;;;;5004921;28;20312;-72
2023/08/06 15:03:53;;;;;;;1.92;0.30;;;17.30;98.00;;;;;;5004272;28;20348;-73
2023/08/06 15:06:18;;;;;;;0.93;0.28;;;17.20;97.40;;;;;;5004805;28;20049;-76
2023/08/06 15:08:46;;;;;;;1.60;0.22;;;16.80;97.70;;;;;;4986857;28;20022;-74
2023/08/06 15:11:13;;;;;;;1.00;0.40;;;16.70;99.60;;;;;;5004140;28;20058;-75
2023/08/06 15:13:39;;;;;;;1.17;0.40;;;16.40;99.90;;;;;;5004599;28;20030;-74
2023/08/06 15:16:08;;;;;;;1.77;0.30;;;16.80;99.90;;;;;;5004145;28;20031;-73
2023/08/06 15:18:36;;;;;;;1.58;0.40;;;17.50;98.80;;;;;;5004491;28;20034;-74
2023/08/06 15:21:02;;;;;;;1.25;0.38;;;18.30;97.80;;;;;;5004227;28;20037;-74
2023/08/06 15:23:28;;;;;;;0.82;0.20;;;19.50;95.00;;;;;;5004159;28;20089;-74
2023/08/06 15:25:56;;;;;;;1.00;0.20;;;20.10;91.90;;;;;;5003891;28;20014;-71
2023/08/06 15:28:22;;;;;;;;;;;19.90;91.90;;;;;;5004759;28;20037;-74
2023/08/06 15:30:52;;;;;;;1.15;0.30;;;19.70;92.00;;;;;;5004636;28;19981;-77
2023/08/06 15:33:21;;;;;;;1.00;0.20;;;19.50;91.90;;;;;;4970515;28;20030;-75
2023/08/06 15:35:50;;;;;;;1.27;0.40;;;19.00;92.80;;;;;;5004194;28;20034;-74
2023/08/06 15:38:15;;;;;;;1.95;0.30;;;19.20;92.90;;;;;;5003709;28;20037;-74
2023/08/06 15:40:41;;;;;;;1.05;0.22;;;19.30;92.60;;;;;;5004108;28;20038;-75
2023/08/06 15:43:07;;;;;;;1.73;0.40;;;19.10;92.00;;;;;;4986350;28;20026;-73
2023/08/06 15:45:32;;;;;;;1.15;0.30;;;18.90;91.80;;;;;;5004522;28;20037;-73
2023/08/06 15:47:58;;;;;;;2.60;0.45;;;18.90;92.00;;;;;;5004267;28;20034;-76
2023/08/06 15:50:24;;;;;;;1.60;0.40;;;19.00;92.20;;;;;;4986729;28;20038;-75
2023/08/06 15:52:50;;;;;;;1.10;0.28;;;19.60;91.80;;;;;;4970761;28;20343;-73
2023/08/06 15:55:16;;;;;;;1.65;0.25;;;19.80;90.90;;;;;;4985955;28;20046;-75
2023/08/06 15:57:43;;;;;;;2.25;0.30;;;19.60;91.00;;;;;;5003692;28;20022;-75
2023/08/06 16:00:10;;;;;;;1.77;0.30;;;19.40;90.90;;;;;;5003249;28;20035;-74
2023/08/06 16:02:41;;;;;;;1.55;0.25;;;19.40;90.40;;;;;;4986004;28;20304;-75
2023/08/06 16:05:07;;;;;;;1.35;0.30;;;20.50;89.30;;;;;;5003088;28;20089;-74
2023/08/06 16:07:32;;;;;;;2.08;0.50;;;21.90;84.80;;;;;;5003429;28;20093;-74
2023/08/06 16:09:58;;;;;;;1.25;0.32;;;23.00;81.10;;;;;;5003029;28;20216;-75
2023/08/06 16:12:24;;;;;;;1.40;0.40;;;22.60;80.80;;;;;;5003500;28;20089;-73
2023/08/06 16:14:50;;;;;;;2.70;0.50;;;22.30;81.50;;;;;;5003464;28;20085;-72
2023/08/06 16:17:19;;;;;;;1.60;0.40;;;20.80;84.10;;;;;;5003582;28;20030;-77
2023/08/06 16:20:15;;;;;;;1.00;0.30;;;20.00;87.80;;;;;;4986520;28;20038;-75
2023/08/06 16:22:54;;;;;;;0.73;0.22;;;19.60;88.90;;;;;;4987660;28;20050;-75
2023/08/06 16:25:23;;;;;;;2.50;0.32;;;19.50;88.90;;;;;;4979266;28;20077;-75
2023/08/06 16:27:48;;;;;;;2.08;0.40;;;20.10;87.50;;;;;;4983626;28;20035;-74
2023/08/06 16:30:16;;;;;;;1.83;0.50;;;20.70;86.20;;;;;;4986643;28;20078;-77
2023/08/06 16:32:42;;;;;;;2.23;0.60;;;20.10;86.90;;;;;;4992124;28;20306;-75
2023/08/06 16:35:09;;;;;;;1.38;0.32;;;19.40;89.50;;;;;;5002582;28;20038;-78
2023/08/06 16:37:44;;;;;;;1.10;0.38;;;19.00;90.30;;;;;;5003394;28;20252;-74
2023/08/06 16:40:13;;;;;;;1.83;0.80;;;18.60;91.10;;;;;;5002808;28;20101;-75
2023/08/06 16:42:39;;;;;;;0.73;0.25;;;18.30;92.00;;;;;;5003381;28;20093;-75
2023/08/06 16:45:11;;;;;;;0.90;0.40;;;17.90;91.90;;;;;;5002914;28;20038;-77
2023/08/06 16:47:40;;;;;;;1.10;0.40;;;17.60;92.70;;;;;;5003164;28;20045;-74
2023/08/06 16:50:06;;;;;;;;;;;17.50;93.00;;;;;;5003358;28;20046;-75
2023/08/06 16:52:32;;;;;;;2.88;0.50;;;17.20;93.00;;;;;;4986025;28;19912;-75
2023/08/06 16:55:00;;;;;;;2.50;0.60;;;16.70;99.90;;;;;;5003229;28;20030;-76
2023/08/06 16:57:26;;;;;;;2.97;0.70;;;15.10;99.90;;;;;;5003179;28;20034;-76
2023/08/06 16:59:52;;;;;;;2.35;0.82;;;14.20;99.90;;;;;;4982442;28;20041;-75
2023/08/06 17:02:46;;;;;;;;;;;;;;;;;;;;;
2023/08/06 17:05:15;;;;;;;3.22;0.80;;;13.60;99.90;;;;;;4983317;28;20081;-75
2023/08/06 17:07:49;;;;;;;1.98;0.80;;;13.40;99.90;;;;;;4966991;28;20022;-75
2023/08/06 17:10:19;;;;;;;3.50;1.27;;;13.40;99.90;;;;;;4983178;28;20058;-75
2023/08/06 17:12:46;;;;;;;4.18;1.00;;;13.50;99.90;;;;;;4984262;28;20026;-76
2023/08/06 17:15:17;;;;;;;3.53;1.15;;;13.50;99.90;;;;;;4985419;28;20050;-74
2023/08/06 17:17:43;;;;;;;4.50;1.08;;;13.60;99.90;;;;;;4987658;28;20073;-74
2023/08/06 17:20:21;;;;;;;2.88;1.30;;;13.80;99.90;;;;;;4987143;28;20050;-76
2023/08/06 17:22:47;;;;;;;2.20;1.20;;;14.00;99.90;;;;;;4969979;28;20035;-73
2023/08/06 17:25:16;;;;;;;2.83;1.10;;;14.20;99.90;;;;;;4992317;28;20037;-76
2023/08/06 17:27:45;;;;;;;2.55;0.95;;;14.30;99.90;;;;;;5006706;28;20034;-76
2023/08/06 17:30:13;;;;;;;2.03;0.88;;;14.40;99.90;;;;;;5006674;28;20105;-75
2023/08/06 17:32:45;;;;;;;2.42;0.80;;;14.40;99.90;;;;;;5011384;28;20045;-74
2023/08/06 17:35:11;;;;;;;2.88;1.02;;;14.40;99.90;;;;;;5027453;28;20038;-74
2023/08/06 17:37:40;;;;;;;2.55;1.00;;;14.40;99.90;;;;;;5026123;28;20034;-74
2023/08/06 17:40:15;;;;;;;3.05;1.15;;;14.40;99.90;;;;;;5025536;28;20060;-74
2023/08/06 17:42:41;;;;;;;2.28;0.88;;;14.30;99.90;;;;;;5026251;28;20030;-73
2023/08/06 17:45:07;;;;;;;2.88;0.80;;;14.40;99.90;;;;;;5025479;28;20042;-75
2023/08/06 17:47:32;;;;;;;2.00;1.02;;;14.50;99.90;;;;;;5026133;28;20076;-75
2023/08/06 17:49:58;;;;;;;2.70;0.80;;;14.40;99.90;;;;;;5025901;28;20034;-75
2023/08/06 17:52:24;;;;;;;2.20;0.57;;;14.40;99.90;;;;;;5008018;28;20022;-76
2023/08/06 17:54:49;;;;;;;2.85;0.90;;;14.40;99.90;;;;;;5025573;28;20045;-76
2023/08/06 17:57:16;;;;;;;4.05;0.93;;;14.30;99.90;;;;;;5012616;28;20053;-76
2023/08/06 17:59:42;;;;;;;2.00;0.70;;;14.50;99.90;;;;;;5022154;28;20026;-75
2023/08/06 18:02:07;;;;;;;2.92;0.95;;;14.50;99.90;;;;;;5023929;28;20052;-74
2023/08/06 18:04:33;;;;;;;2.42;0.88;;;14.40;99.90;;;;;;5025841;28;20045;-75
2023/08/06 18:06:59;;;;;;;4.18;1.02;;;14.30;99.90;;;;;;5025523;28;20053;-74
2023/08/06 18:09:25;;;;;;;2.47;0.90;;;14.30;99.90;;;;;;5024671;28;20194;-74
2023/08/06 18:11:50;;;;;;;2.75;0.90;;;14.20;99.90;;;;;;5025843;28;20097;-76
2023/08/06 18:14:16;;;;;;;2.67;1.10;;;14.20;99.90;;;;;;5025161;28;20030;-74
2023/08/06 18:16:42;;;;;;;3.47;0.85;;;14.10;99.90;;;;;;5025461;28;20122;-74
2023/08/06 18:19:07;;;;;;;2.90;0.75;;;14.20;99.90;;;;;;5007392;28;20064;-76
2023/08/06 18:21:33;;;;;;;2.55;0.80;;;14.10;99.90;;;;;;5025402;28;20029;-75
2023/08/06 18:23:59;;;;;;;3.17;1.00;;;14.00;99.90;;;;;;5007735;28;20320;-75
2023/08/06 18:26:25;;;;;;;4.68;1.50;;;14.00;99.90;;;;;;5023872;28;20065;-74
2023/08/06 18:28:51;;;;;;;2.35;1.20;;;13.90;99.90;;;;;;5025174;28;20033;-75
2023/08/06 18:31:16;;;;;;;2.83;1.02;;;13.90;99.90;;;;;;5024526;28;20022;-75
2023/08/06 18:33:42;;;;;;;3.90;1.10;;;13.90;99.90;;;;;;5025025;28;20042;-75
2023/08/06 18:36:09;;;;;;;2.90;1.02;;;13.80;99.90;;;;;;5015369;28;20085;-75
2023/08/06 18:38:34;;;;;;;3.30;1.13;;;13.80;99.90;;;;;;5005490;28;20041;-75